createdAt,value
2023-02-06T00:00:41.890Z,98828.97
2023-02-06T00:02:43.933Z,98821.63
2023-02-06T00:04:45.615Z,98817.59
2023-02-06T00:06:47.242Z,98825.91
2023-02-06T00:08:48.843Z,98816.59
2023-02-06T00:10:50.361Z,98803.06
2023-02-06T00:12:51.915Z,98796.47
2023-02-06T00:14:53.462Z,98812.06
2023-02-06T00:16:54.952Z,98817.78
2023-02-06T00:18:58.020Z,98816.19
2023-02-06T00:20:59.643Z,98812.97
2023-02-06T00:23:01.404Z,98811.66
2023-02-06T00:25:03.706Z,98813.84
2023-02-06T00:27:05.207Z,98806.16
2023-02-06T00:29:06.774Z,98810.56
2023-02-06T00:31:09.138Z,98810.66
2023-02-06T00:33:10.791Z,98804.72
2023-02-06T00:35:13.330Z,98808.34
2023-02-06T00:37:17.430Z,98816.63
2023-02-06T00:39:19.587Z,98810.38
2023-02-06T00:41:21.403Z,98806.22
2023-02-06T00:43:23.188Z,98808.75
2023-02-06T00:45:24.705Z,98819.41
2023-02-06T00:47:26.416Z,98816.63
2023-02-06T00:49:27.954Z,98806.66
2023-02-06T00:51:29.919Z,98807.25
2023-02-06T00:53:32.085Z,98809.44
2023-02-06T00:55:34.230Z,98809.75
2023-02-06T00:57:35.949Z,98812.63
2023-02-06T00:59:37.461Z,98817.13
2023-02-06T01:01:38.957Z,98821.97
2023-02-06T01:03:40.677Z,98827.38
2023-02-06T01:05:44.328Z,98840.00
2023-02-06T01:07:46.005Z,98833.53
2023-02-06T01:09:47.837Z,98827.72
2023-02-06T01:11:49.476Z,98838.66
2023-02-06T01:13:51.614Z,98839.09
2023-02-06T01:15:53.622Z,98841.44
2023-02-06T01:17:55.207Z,98842.03
2023-02-06T01:19:56.742Z,98849.44
2023-02-06T01:21:58.371Z,98850.09
2023-02-06T01:24:00.338Z,98847.00
2023-02-06T01:26:11.488Z,98842.50
2023-02-06T01:28:13.690Z,98849.81
2023-02-06T01:30:16.545Z,98855.50
2023-02-06T01:32:18.144Z,98857.59
2023-02-06T01:34:19.765Z,98853.97
2023-02-06T01:36:21.998Z,98849.47
2023-02-06T01:38:24.532Z,98853.44
2023-02-06T01:40:26.505Z,98851.63
2023-02-06T01:42:28.039Z,98851.00
2023-02-06T01:44:31.905Z,98844.56
2023-02-06T01:46:33.975Z,98847.34
2023-02-06T01:48:47.676Z,98843.25
2023-02-06T01:50:53.738Z,98850.59
2023-02-06T01:52:55.974Z,98838.09
2023-02-06T01:55:02.744Z,98841.88
2023-02-06T01:57:08.430Z,98841.78
2023-02-06T01:59:10.024Z,98835.31
2023-02-06T02:01:11.929Z,98848.31
2023-02-06T02:03:14.455Z,98841.53
2023-02-06T02:05:18.267Z,98839.06
2023-02-06T02:07:24.647Z,98854.03
2023-02-06T02:09:28.446Z,98846.16
2023-02-06T02:11:35.956Z,98848.91
2023-02-06T02:13:39.625Z,98835.41
2023-02-06T02:16:16.364Z,98828.09
2023-02-06T02:18:32.796Z,98827.72
2023-02-06T02:21:07.284Z,98826.13
2023-02-06T02:23:25.885Z,98829.41
2023-02-06T02:26:18.779Z,98816.38
2023-02-06T02:28:33.743Z,98816.69
2023-02-06T02:31:19.592Z,98821.09
2023-02-06T02:33:42.666Z,98825.03
2023-02-06T02:36:03.004Z,98815.53
2023-02-06T02:38:11.765Z,98820.25
2023-02-06T02:40:40.930Z,98810.97
2023-02-06T02:42:54.965Z,98815.31
2023-02-06T02:45:19.008Z,98810.00
2023-02-06T02:47:28.468Z,98809.22
2023-02-06T02:49:35.264Z,98800.00
2023-02-06T02:51:39.656Z,98809.06
2023-02-06T02:53:41.604Z,98804.63
2023-02-06T02:55:43.168Z,98802.94
2023-02-06T02:57:46.772Z,98804.53
2023-02-06T02:59:50.333Z,98804.19
2023-02-06T03:02:06.524Z,98811.22
2023-02-06T03:04:14.351Z,98811.97
2023-02-06T03:06:28.104Z,98810.59
2023-02-06T03:08:48.406Z,98806.59
2023-02-06T03:11:06.727Z,98811.75
2023-02-06T03:13:21.031Z,98800.31
2023-02-06T03:15:45.584Z,98805.25
2023-02-06T03:17:52.695Z,98804.66
2023-02-06T03:19:58.709Z,98791.84
2023-02-06T03:22:01.550Z,98796.81
2023-02-06T03:24:09.866Z,98790.69
2023-02-06T03:26:16.437Z,98789.25
2023-02-06T03:28:25.025Z,98800.78
2023-02-06T03:30:29.716Z,98794.28
2023-02-06T03:32:34.518Z,98801.09
2023-02-06T03:35:14.436Z,98804.44
2023-02-06T03:37:16.222Z,98800.72
2023-02-06T03:39:18.056Z,98796.47
2023-02-06T03:41:26.207Z,98790.63
2023-02-06T03:43:29.488Z,98795.47
2023-02-06T03:45:42.624Z,98791.38
2023-02-06T03:47:47.752Z,98791.97
2023-02-06T03:49:51.340Z,98799.16
2023-02-06T03:52:05.557Z,98799.66
2023-02-06T03:54:10.744Z,98801.63
2023-02-06T03:56:26.517Z,98808.53
2023-02-06T03:58:28.165Z,98809.50
2023-02-06T04:00:31.872Z,98817.56
2023-02-06T04:02:34.629Z,98818.13
2023-02-06T04:04:39.167Z,98826.00
2023-02-06T04:06:41.539Z,98818.09
2023-02-06T04:08:43.058Z,98815.06
2023-02-06T04:10:44.742Z,98823.63
2023-02-06T04:12:46.362Z,98819.28
2023-02-06T04:14:48.091Z,98821.94
2023-02-06T04:16:49.751Z,98823.44
2023-02-06T04:18:51.266Z,98818.47
2023-02-06T04:20:52.969Z,98823.38
2023-02-06T04:22:54.447Z,98812.06
2023-02-06T04:24:55.968Z,98817.38
2023-02-06T04:26:58.951Z,98823.81
2023-02-06T04:29:00.796Z,98817.50
2023-02-06T04:31:02.977Z,98827.88
2023-02-06T04:33:05.423Z,98828.00
2023-02-06T04:35:07.277Z,98824.34
2023-02-06T04:37:12.200Z,98822.97
2023-02-06T04:39:13.762Z,98832.63
2023-02-06T04:41:15.422Z,98826.50
2023-02-06T04:43:16.912Z,98824.06
2023-02-06T04:45:18.545Z,98829.09
2023-02-06T04:47:20.153Z,98826.59
2023-02-06T04:49:21.884Z,98829.47
2023-02-06T04:51:23.359Z,98818.38
2023-02-06T04:53:24.907Z,98820.63
2023-02-06T04:55:26.476Z,98824.75
2023-02-06T04:57:28.030Z,98823.28
2023-02-06T04:59:29.752Z,98833.34
2023-02-06T05:01:31.330Z,98830.59
2023-02-06T05:03:33.128Z,98817.47
2023-02-06T05:05:35.184Z,98821.69
2023-02-06T05:07:37.323Z,98832.72
2023-02-06T05:09:38.957Z,98833.81
2023-02-06T05:11:40.567Z,98832.25
2023-02-06T05:13:43.154Z,98827.13
2023-02-06T05:15:44.841Z,98833.13
2023-02-06T05:17:46.414Z,98833.59
2023-02-06T05:19:48.384Z,98830.75
2023-02-06T05:21:50.284Z,98836.69
2023-02-06T05:23:51.835Z,98834.09
2023-02-06T05:25:53.408Z,98832.13
2023-02-06T05:27:55.410Z,98831.56
2023-02-06T05:29:56.964Z,98833.63
2023-02-06T05:31:58.800Z,98827.47
2023-02-06T05:34:00.490Z,98825.38
2023-02-06T05:36:04.936Z,98821.63
2023-02-06T05:38:06.522Z,98815.81
2023-02-06T05:40:09.148Z,98819.94
2023-02-06T05:42:11.821Z,98821.63
2023-02-06T05:44:13.865Z,98818.38
2023-02-06T05:46:15.719Z,98808.81
2023-02-06T05:48:17.490Z,98811.75
2023-02-06T05:50:19.316Z,98806.66
2023-02-06T05:52:20.932Z,98807.25
2023-02-06T05:54:22.559Z,98810.59
2023-02-06T05:56:25.213Z,98810.88
2023-02-06T05:58:26.876Z,98802.16
2023-02-06T06:00:28.453Z,98797.19
2023-02-06T06:02:30.011Z,98796.91
2023-02-06T06:04:31.651Z,98799.72
2023-02-06T06:06:33.211Z,98800.03
2023-02-06T06:08:35.211Z,98793.28
2023-02-06T06:10:36.745Z,98797.00
2023-02-06T06:12:38.512Z,98806.75
2023-02-06T06:14:40.304Z,98805.91
2023-02-06T06:16:42.618Z,98806.97
2023-02-06T06:18:44.416Z,98804.44
2023-02-06T06:20:46.797Z,98803.47
2023-02-06T06:22:48.459Z,98788.84
2023-02-06T06:24:50.504Z,98795.13
2023-02-06T06:26:52.384Z,98790.03
2023-02-06T06:28:54.173Z,98790.09
2023-02-06T06:31:03.590Z,98799.75
2023-02-06T06:33:05.491Z,98797.28
2023-02-06T06:35:07.280Z,98796.47
2023-02-06T06:37:08.793Z,98797.03
2023-02-06T06:39:10.838Z,98793.13
2023-02-06T06:41:12.753Z,98796.16
2023-02-06T06:43:14.417Z,98801.28
2023-02-06T06:45:16.107Z,98819.19
2023-02-06T06:47:17.728Z,98822.88
2023-02-06T06:49:19.197Z,98824.66
2023-02-06T06:51:21.567Z,98827.97
2023-02-06T06:53:23.689Z,98830.53
2023-02-06T06:55:25.371Z,98832.34
2023-02-06T06:57:29.838Z,98828.28
2023-02-06T06:59:31.384Z,98831.16
2023-02-06T07:01:33.260Z,98831.16
2023-02-06T07:03:35.019Z,98829.94
2023-02-06T07:05:36.928Z,98829.72
2023-02-06T07:07:41.586Z,98828.06
2023-02-06T07:09:43.119Z,98828.75
2023-02-06T07:11:44.672Z,98828.03
2023-02-06T07:13:46.770Z,98818.47
2023-02-06T07:15:48.292Z,98820.25
2023-02-06T07:17:49.827Z,98824.19
2023-02-06T07:19:52.549Z,98830.19
2023-02-06T07:21:54.085Z,98820.59
2023-02-06T07:23:55.876Z,98822.56
2023-02-06T07:26:02.162Z,98816.31
2023-02-06T07:28:03.827Z,98818.53
2023-02-06T07:30:06.650Z,98824.44
2023-02-06T07:32:09.349Z,98822.22
2023-02-06T07:34:12.510Z,98825.47
2023-02-06T07:36:15.907Z,98823.28
2023-02-06T07:38:17.738Z,98828.81
2023-02-06T07:40:20.794Z,98823.91
2023-02-06T07:42:22.362Z,98826.22
2023-02-06T07:44:28.608Z,98836.22
2023-02-06T07:46:33.344Z,98831.13
2023-02-06T07:48:34.920Z,98832.44
2023-02-06T07:50:36.821Z,98826.28
2023-02-06T07:52:38.541Z,98823.72
2023-02-06T07:54:40.041Z,98818.94
2023-02-06T07:56:41.894Z,98817.84
2023-02-06T07:58:44.356Z,98823.31
2023-02-06T08:00:46.041Z,98827.22
2023-02-06T08:02:47.870Z,98815.69
2023-02-06T08:04:49.450Z,98808.63
2023-02-06T08:06:51.022Z,98822.63
2023-02-06T08:08:55.627Z,98821.00
2023-02-06T08:10:57.145Z,98831.94
2023-02-06T08:12:58.928Z,98826.78
2023-02-06T08:15:00.474Z,98829.56
2023-02-06T08:17:01.989Z,98826.88
2023-02-06T08:19:03.762Z,98826.97
2023-02-06T08:21:07.794Z,98822.59
2023-02-06T08:23:09.764Z,98807.25
2023-02-06T08:25:11.369Z,98800.34
2023-02-06T08:27:12.847Z,98794.31
2023-02-06T08:29:14.399Z,98796.72
2023-02-06T08:31:26.443Z,98803.66
2023-02-06T08:33:28.355Z,98796.69
2023-02-06T08:35:29.894Z,98798.34
2023-02-06T08:37:32.418Z,98803.88
2023-02-06T08:39:33.938Z,98799.69
2023-02-06T08:41:39.580Z,98801.22
2023-02-06T08:43:41.113Z,98805.28
2023-02-06T08:45:42.698Z,98810.88
2023-02-06T08:47:44.218Z,98809.47
2023-02-06T08:49:45.754Z,98806.66
2023-02-06T08:51:49.504Z,98805.94
2023-02-06T08:53:51.061Z,98813.72
2023-02-06T08:55:58.419Z,98806.50
2023-02-06T08:58:00.667Z,98819.09
2023-02-06T09:00:02.961Z,98821.06
2023-02-06T09:02:06.058Z,98817.34
2023-02-06T09:04:10.557Z,98828.94
2023-02-06T09:06:13.321Z,98818.59
2023-02-06T09:08:14.913Z,98813.38
2023-02-06T09:10:26.986Z,98813.50
2023-02-06T09:12:28.893Z,98814.50
2023-02-06T09:14:30.872Z,98813.25
2023-02-06T09:16:33.511Z,98812.66
2023-02-06T09:18:35.499Z,98807.72
2023-02-06T09:20:37.069Z,98807.31
2023-02-06T09:22:38.850Z,98803.50
2023-02-06T09:24:40.917Z,98806.41
2023-02-06T09:26:58.484Z,98803.09
2023-02-06T09:29:05.346Z,98796.75
2023-02-06T09:31:08.210Z,98780.63
2023-02-06T09:33:09.837Z,98781.97
2023-02-06T09:35:11.509Z,98781.25
2023-02-06T09:37:13.228Z,98782.13
2023-02-06T09:39:15.520Z,98785.81
2023-02-06T09:41:28.677Z,98772.03
2023-02-06T09:43:33.114Z,98770.16
2023-02-06T09:45:35.235Z,98770.78
2023-02-06T09:47:47.570Z,98760.22
2023-02-06T09:49:54.493Z,98762.53
2023-02-06T09:52:27.881Z,98762.31
2023-02-06T09:54:43.151Z,98772.91
2023-02-06T09:57:17.712Z,98760.16
2023-02-06T09:59:29.777Z,98765.19
2023-02-06T10:01:57.668Z,98762.34
2023-02-06T10:04:38.831Z,98768.47
2023-02-06T10:06:48.153Z,98764.59
2023-02-06T10:09:03.600Z,98771.88
2023-02-06T10:11:14.376Z,98773.84
2023-02-06T10:13:33.236Z,98770.13
2023-02-06T10:15:47.811Z,98766.16
2023-02-06T10:17:56.305Z,98770.88
2023-02-06T10:20:13.050Z,98774.81
2023-02-06T10:22:26.831Z,98776.84
2023-02-06T10:25:02.084Z,98761.94
2023-02-06T10:27:11.076Z,98761.41
2023-02-06T10:29:22.471Z,98763.84
2023-02-06T10:31:24.056Z,98756.75
2023-02-06T10:33:39.470Z,98766.06
2023-02-06T10:35:47.195Z,98768.56
2023-02-06T10:38:09.872Z,98755.38
2023-02-06T10:40:29.017Z,98755.38
2023-02-06T10:42:52.020Z,98755.19
2023-02-06T10:45:20.288Z,98746.47
2023-02-06T10:47:41.261Z,98742.25
2023-02-06T10:49:50.079Z,98734.22
2023-02-06T10:51:57.013Z,98748.91
2023-02-06T10:54:02.808Z,98750.66
2023-02-06T10:56:13.373Z,98738.41
2023-02-06T10:58:30.031Z,98736.09
2023-02-06T11:00:32.469Z,98716.31
2023-02-06T11:02:49.010Z,98714.66
2023-02-06T11:05:03.123Z,98706.13
2023-02-06T11:07:24.989Z,98710.56
2023-02-06T11:09:26.936Z,98709.53
2023-02-06T11:11:32.086Z,98699.81
2023-02-06T11:13:37.069Z,98710.88
2023-02-06T11:16:02.411Z,98698.69
2023-02-06T11:18:07.167Z,98699.09
2023-02-06T11:20:25.888Z,98696.91
2023-02-06T11:22:30.646Z,98709.66
2023-02-06T11:24:35.349Z,98715.00
2023-02-06T11:26:41.940Z,98707.41
2023-02-06T11:28:56.230Z,98691.91
2023-02-06T11:31:01.275Z,98702.34
2023-02-06T11:33:07.136Z,98694.63
2023-02-06T11:35:11.269Z,98698.38
2023-02-06T11:37:32.790Z,98686.59
2023-02-06T11:39:39.295Z,98685.13
2023-02-06T11:41:40.969Z,98688.88
2023-02-06T11:43:42.418Z,98670.75
2023-02-06T11:45:47.065Z,98677.50
2023-02-06T11:47:48.753Z,98673.25
2023-02-06T11:49:50.410Z,98665.97
2023-02-06T11:51:59.643Z,98674.97
2023-02-06T11:54:03.804Z,98677.22
2023-02-06T11:56:18.550Z,98678.38
2023-02-06T11:58:22.513Z,98673.22
2023-02-06T12:00:24.172Z,98667.59
2023-02-06T12:02:31.946Z,98661.59
2023-02-06T12:04:39.022Z,98675.63
2023-02-06T12:06:41.339Z,98672.03
2023-02-06T12:08:53.688Z,98673.53
2023-02-06T12:11:00.907Z,98670.56
2023-02-06T12:13:09.256Z,98677.03
2023-02-06T12:15:36.247Z,98677.88
2023-02-06T12:17:39.745Z,98672.28
2023-02-06T12:19:52.179Z,98677.94
2023-02-06T12:22:02.175Z,98682.63
2023-02-06T12:24:30.862Z,98672.53
2023-02-06T12:26:35.202Z,98666.69
2023-02-06T12:29:04.778Z,98662.88
2023-02-06T12:31:26.628Z,98659.81
2023-02-06T12:33:53.386Z,98657.00
2023-02-06T12:36:00.758Z,98652.72
2023-02-06T12:38:12.464Z,98666.44
2023-02-06T12:40:48.785Z,98644.13
2023-02-06T12:43:07.065Z,98653.00
2023-02-06T12:45:31.598Z,98641.34
2023-02-06T12:47:57.631Z,98641.94
2023-02-06T12:50:15.422Z,98642.09
2023-02-06T12:52:21.266Z,98641.97
2023-02-06T12:54:36.240Z,98636.56
2023-02-06T12:56:54.104Z,98643.72
2023-02-06T12:59:09.236Z,98645.16
2023-02-06T13:01:30.125Z,98639.16
2023-02-06T13:03:42.992Z,98641.03
2023-02-06T13:05:49.107Z,98647.88
2023-02-06T13:07:52.693Z,98651.81
2023-02-06T13:10:05.759Z,98637.44
2023-02-06T13:12:13.185Z,98653.31
2023-02-06T13:14:28.696Z,98646.47
2023-02-06T13:16:45.617Z,98651.78
2023-02-06T13:18:52.477Z,98646.03
2023-02-06T13:21:16.039Z,98651.38
2023-02-06T13:23:17.794Z,98657.31
2023-02-06T13:25:31.456Z,98650.25
2023-02-06T13:27:40.004Z,98650.19
2023-02-06T13:29:48.995Z,98646.78
2023-02-06T13:32:11.331Z,98650.06
2023-02-06T13:34:17.467Z,98658.94
2023-02-06T13:36:26.988Z,98662.00
2023-02-06T13:38:38.049Z,98659.75
2023-02-06T13:40:39.702Z,98656.19
2023-02-06T13:43:15.735Z,98664.91
2023-02-06T13:45:45.475Z,98662.91
2023-02-06T13:48:10.055Z,98658.38
2023-02-06T13:50:50.001Z,98663.84
2023-02-06T13:53:12.538Z,98661.50
2023-02-06T13:55:34.140Z,98654.34
2023-02-06T13:58:19.576Z,98656.25
2023-02-06T14:00:30.069Z,98644.31
2023-02-06T14:02:38.653Z,98642.97
2023-02-06T14:04:41.136Z,98642.31
2023-02-06T14:06:56.737Z,98649.22
2023-02-06T14:09:32.738Z,98651.31
2023-02-06T14:12:10.726Z,98647.09
2023-02-06T14:14:38.679Z,98644.00
2023-02-06T14:17:12.193Z,98646.59
2023-02-06T14:19:28.327Z,98638.66
2023-02-06T14:21:51.549Z,98644.03
2023-02-06T14:23:58.825Z,98637.06
2023-02-06T14:26:28.006Z,98641.03
2023-02-06T14:28:53.723Z,98637.13
2023-02-06T14:31:11.258Z,98640.81
2023-02-06T14:33:18.835Z,98645.09
2023-02-06T14:35:38.045Z,98643.78
2023-02-06T14:38:01.906Z,98650.78
2023-02-06T14:40:17.069Z,98645.66
2023-02-06T14:42:31.094Z,98650.31
2023-02-06T14:44:32.781Z,98659.50
2023-02-06T14:46:35.023Z,98665.44
2023-02-06T14:48:42.883Z,98659.25
2023-02-06T14:50:54.853Z,98661.41
2023-02-06T14:53:10.181Z,98652.31
2023-02-06T14:55:36.305Z,98650.84
2023-02-06T14:57:39.057Z,98646.28
2023-02-06T14:59:51.298Z,98647.88
2023-02-06T15:01:54.991Z,98652.00
2023-02-06T15:04:14.735Z,98646.78
2023-02-06T15:06:30.881Z,98645.97
2023-02-06T15:08:33.565Z,98639.16
2023-02-06T15:10:37.826Z,98646.19
2023-02-06T15:12:39.379Z,98646.19
2023-02-06T15:15:02.649Z,98643.03
2023-02-06T15:17:04.402Z,98643.81
2023-02-06T15:19:10.966Z,98633.81
2023-02-06T15:21:16.127Z,98650.72
2023-02-06T15:23:41.274Z,98645.56
2023-02-06T15:25:45.404Z,98654.50
2023-02-06T15:27:46.991Z,98644.34
2023-02-06T15:29:50.261Z,98648.13
2023-02-06T15:31:54.424Z,98656.94
2023-02-06T15:33:59.039Z,98647.59
2023-02-06T15:36:03.225Z,98660.31
2023-02-06T15:38:08.255Z,98644.16
2023-02-06T15:40:22.809Z,98653.41
2023-02-06T15:42:24.489Z,98654.28
2023-02-06T15:44:34.181Z,98656.13
2023-02-06T15:46:37.828Z,98660.88
2023-02-06T15:48:51.253Z,98654.53
2023-02-06T15:51:17.277Z,98651.94
2023-02-06T15:53:32.426Z,98661.19
2023-02-06T15:55:36.170Z,98648.50
2023-02-06T15:57:41.657Z,98650.38
2023-02-06T15:59:43.984Z,98646.13
2023-02-06T16:01:46.361Z,98649.28
2023-02-06T16:03:55.831Z,98650.56
2023-02-06T16:05:58.221Z,98652.59
2023-02-06T16:08:01.340Z,98648.69
2023-02-06T16:10:14.382Z,98645.06
2023-02-06T16:12:16.455Z,98639.06
2023-02-06T16:14:30.279Z,98644.28
2023-02-06T16:16:32.573Z,98649.31
2023-02-06T16:18:37.127Z,98650.88
2023-02-06T16:20:42.249Z,98651.19
2023-02-06T16:22:44.265Z,98658.25
2023-02-06T16:24:46.023Z,98654.50
2023-02-06T16:26:49.945Z,98664.41
2023-02-06T16:28:54.642Z,98662.03
2023-02-06T16:31:02.235Z,98650.72
2023-02-06T16:33:24.174Z,98656.88
2023-02-06T16:35:26.296Z,98653.09
2023-02-06T16:37:30.055Z,98666.28
2023-02-06T16:39:31.631Z,98670.81
2023-02-06T16:41:36.996Z,98660.13
2023-02-06T16:43:38.792Z,98661.84
2023-02-06T16:45:41.109Z,98656.94
2023-02-06T16:47:43.167Z,98668.25
2023-02-06T16:49:48.037Z,98665.44
2023-02-06T16:51:52.314Z,98666.56
2023-02-06T16:53:54.552Z,98669.88
2023-02-06T16:55:56.114Z,98676.25
2023-02-06T16:58:00.290Z,98671.25
2023-02-06T17:00:06.108Z,98674.72
2023-02-06T17:02:14.520Z,98690.88
2023-02-06T17:04:16.126Z,98686.28
2023-02-06T17:06:29.147Z,98689.41
2023-02-06T17:08:36.886Z,98685.63
2023-02-06T17:10:38.678Z,98686.88
2023-02-06T17:12:41.122Z,98691.47
2023-02-06T17:14:43.556Z,98697.44
2023-02-06T17:16:45.578Z,98687.69
2023-02-06T17:18:48.403Z,98684.13
2023-02-06T17:20:56.283Z,98686.44
2023-02-06T17:22:57.949Z,98681.41
2023-02-06T17:24:59.933Z,98686.19
2023-02-06T17:27:03.061Z,98678.69
2023-02-06T17:29:05.673Z,98675.81
2023-02-06T17:31:08.343Z,98668.41
2023-02-06T17:33:10.012Z,98669.56
2023-02-06T17:35:12.085Z,98685.75
2023-02-06T17:37:20.546Z,98668.66
2023-02-06T17:39:22.707Z,98667.84
2023-02-06T17:41:24.962Z,98668.00
2023-02-06T17:43:26.516Z,98660.59
2023-02-06T17:45:28.216Z,98665.72
2023-02-06T17:47:29.749Z,98657.88
2023-02-06T17:49:31.456Z,98657.56
2023-02-06T17:51:33.186Z,98654.72
2023-02-06T17:53:34.944Z,98649.50
2023-02-06T17:55:36.896Z,98649.56
2023-02-06T17:57:39.030Z,98649.38
2023-02-06T17:59:40.573Z,98633.78
2023-02-06T18:01:42.593Z,98638.44
2023-02-06T18:03:46.412Z,98641.84
2023-02-06T18:06:02.139Z,98641.00
2023-02-06T18:08:03.815Z,98641.44
2023-02-06T18:10:06.467Z,98632.69
2023-02-06T18:12:08.159Z,98639.47
2023-02-06T18:14:10.940Z,98644.91
2023-02-06T18:16:22.639Z,98642.47
2023-02-06T18:18:24.643Z,98642.19
2023-02-06T18:20:26.281Z,98645.19
2023-02-06T18:22:27.955Z,98646.84
2023-02-06T18:24:29.659Z,98643.03
2023-02-06T18:33:12.616Z,98660.41
2023-02-06T18:38:10.017Z,98664.19
2023-02-06T18:40:33.200Z,98674.69
2023-02-06T18:42:55.181Z,98675.94
2023-02-06T18:45:18.636Z,98675.88
2023-02-06T18:47:42.334Z,98675.34
2023-02-06T18:50:04.603Z,98679.75
2023-02-06T18:55:27.462Z,98692.00
2023-02-06T18:57:50.779Z,98691.84
2023-02-06T19:00:14.775Z,98685.44
2023-02-06T19:02:36.641Z,98693.78
2023-02-06T19:04:58.971Z,98701.78
2023-02-06T19:07:20.821Z,98699.09
2023-02-06T19:09:43.131Z,98696.94
2023-02-06T19:12:05.313Z,98701.66
2023-02-06T19:14:27.560Z,98705.09
2023-02-06T19:16:50.916Z,98697.28
2023-02-06T19:19:13.020Z,98702.13
2023-02-06T19:21:35.324Z,98702.88
2023-02-06T19:24:00.117Z,98708.69
2023-02-06T19:26:23.188Z,98715.28
2023-02-06T19:28:45.425Z,98716.13
2023-02-06T19:31:08.446Z,98711.53
2023-02-06T19:33:32.148Z,98710.63
2023-02-06T19:35:54.066Z,98710.50
2023-02-06T19:38:15.899Z,98713.16
2023-02-06T19:40:38.390Z,98715.91
2023-02-06T19:43:00.826Z,98717.22
2023-02-06T19:45:22.684Z,98724.91
2023-02-06T19:47:44.581Z,98726.69
2023-02-06T19:50:07.242Z,98723.06
2023-02-06T19:52:09.482Z,98719.66
2023-02-06T19:54:11.331Z,98732.28
2023-02-06T19:56:17.732Z,98726.28
2023-02-06T19:58:19.229Z,98733.50
2023-02-06T20:00:20.929Z,98721.50
2023-02-06T20:02:22.499Z,98723.06
2023-02-06T20:04:27.731Z,98712.94
2023-02-06T20:06:34.760Z,98714.13
2023-02-06T20:08:41.589Z,98711.97
2023-02-06T20:10:43.999Z,98728.72
2023-02-06T20:12:46.456Z,98724.06
2023-02-06T20:14:48.497Z,98708.41
2023-02-06T20:16:50.974Z,98709.97
2023-02-06T20:18:53.790Z,98709.66
2023-02-06T20:20:55.704Z,98716.44
2023-02-06T20:22:57.312Z,98711.38
2023-02-06T20:24:58.844Z,98711.38
2023-02-06T20:27:04.173Z,98709.66
2023-02-06T20:29:07.211Z,98708.69
2023-02-06T20:31:10.143Z,98716.63
2023-02-06T20:33:11.719Z,98721.03
2023-02-06T20:35:13.265Z,98718.63
2023-02-06T20:37:17.467Z,98728.47
2023-02-06T20:39:19.204Z,98718.13
2023-02-06T20:41:22.782Z,98713.91
2023-02-06T20:43:24.403Z,98715.16
2023-02-06T20:45:26.148Z,98731.13
2023-02-06T20:47:28.376Z,98720.56
2023-02-06T20:49:31.214Z,98715.09
2023-02-06T20:51:33.076Z,98724.06
2023-02-06T20:53:34.755Z,98718.25
2023-02-06T20:55:41.650Z,98718.63
2023-02-06T20:57:43.183Z,98727.72
2023-02-06T20:59:44.751Z,98725.28
2023-02-06T21:01:46.646Z,98731.34
2023-02-06T21:03:49.567Z,98731.13
2023-02-06T21:05:56.891Z,98747.19
2023-02-06T21:07:59.261Z,98738.69
2023-02-06T21:10:01.317Z,98727.81
2023-02-06T21:12:03.338Z,98728.31
2023-02-06T21:14:06.338Z,98728.72
2023-02-06T21:16:08.836Z,98713.72
2023-02-06T21:18:10.386Z,98724.19
2023-02-06T21:20:12.230Z,98725.63
2023-02-06T21:22:13.866Z,98726.72
2023-02-06T21:24:16.957Z,98723.28
2023-02-06T21:26:18.815Z,98726.78
2023-02-06T21:28:21.203Z,98729.38
2023-02-06T21:30:22.831Z,98734.09
2023-02-06T21:32:25.269Z,98740.63
2023-02-06T21:34:26.869Z,98736.00
2023-02-06T21:36:30.196Z,98716.03
2023-02-06T21:38:31.759Z,98724.69
2023-02-06T21:40:33.859Z,98723.44
2023-02-06T21:42:35.610Z,98725.34
2023-02-06T21:44:37.790Z,98708.63
2023-02-06T21:46:40.188Z,98734.09
2023-02-06T21:48:42.013Z,98733.50
2023-02-06T21:50:44.779Z,98725.50
2023-02-06T21:52:46.585Z,98724.31
2023-02-06T21:54:48.302Z,98739.50
2023-02-06T21:56:50.717Z,98731.88
2023-02-06T21:58:52.733Z,98732.91
2023-02-06T22:00:55.397Z,98717.09
2023-02-06T22:02:57.041Z,98730.03
2023-02-06T22:04:59.761Z,98725.16
2023-02-06T22:07:01.641Z,98726.97
2023-02-06T22:09:07.590Z,98716.31
2023-02-06T22:11:17.200Z,98723.22
2023-02-06T22:13:18.890Z,98733.88
2023-02-06T22:15:20.687Z,98735.56
2023-02-06T22:17:22.441Z,98722.84
2023-02-06T22:19:24.060Z,98737.78
2023-02-06T22:21:27.464Z,98734.16
2023-02-06T22:23:29.043Z,98730.72
2023-02-06T22:25:30.543Z,98737.19
2023-02-06T22:27:32.997Z,98740.13
2023-02-06T22:29:34.634Z,98746.63
2023-02-06T22:31:36.851Z,98748.88
2023-02-06T22:33:38.904Z,98750.06
2023-02-06T22:35:40.544Z,98747.78
2023-02-06T22:37:44.452Z,98749.41
2023-02-06T22:39:46.182Z,98750.69
2023-02-06T22:41:48.696Z,98743.69
2023-02-06T22:43:51.000Z,98736.38
2023-02-06T22:45:52.676Z,98740.41
2023-02-06T22:47:54.297Z,98741.63
2023-02-06T22:49:55.848Z,98740.28
2023-02-06T22:52:00.152Z,98737.50
2023-02-06T22:54:02.375Z,98745.44
2023-02-06T22:56:24.046Z,98745.34
2023-02-06T22:58:25.585Z,98735.34
2023-02-06T23:00:28.679Z,98730.84
2023-02-06T23:02:30.299Z,98733.44
2023-02-06T23:04:36.062Z,98729.63
2023-02-06T23:06:37.969Z,98742.59
2023-02-06T23:08:40.854Z,98731.69
2023-02-06T23:10:45.694Z,98737.44
2023-02-06T23:12:47.761Z,98739.31
2023-02-06T23:14:49.523Z,98752.50
2023-02-06T23:16:51.677Z,98744.44
2023-02-06T23:18:53.256Z,98739.63
2023-02-06T23:21:03.999Z,98759.28
2023-02-06T23:23:05.653Z,98759.28
2023-02-06T23:25:07.271Z,98755.13
2023-02-06T23:27:09.313Z,98754.63
2023-02-06T23:29:15.672Z,98765.19
2023-02-06T23:31:17.340Z,98759.78
2023-02-06T23:33:19.650Z,98762.88
2023-02-06T23:35:21.169Z,98748.94
2023-02-06T23:37:22.707Z,98745.22
2023-02-06T23:39:24.265Z,98756.13
2023-02-06T23:41:27.859Z,98749.41
2023-02-06T23:43:29.436Z,98746.19
2023-02-06T23:45:30.978Z,98744.88
2023-02-06T23:47:34.209Z,98749.94
2023-02-06T23:49:35.996Z,98743.91
2023-02-06T23:51:38.323Z,98735.13
2023-02-06T23:53:39.855Z,98737.31
2023-02-06T23:55:41.402Z,98726.22
2023-02-06T23:57:44.023Z,98724.59
2023-02-06T23:59:45.646Z,98718.22
